Time;durP1;ratioP1;P1;durP2;ratioP2;P2;SDS_P1;SDS_P2;PMS_P1;PMS_P2;Temp;Humidity;BMP_temperature;BMP_pressure;BME280_temperature;BME280_humidity;BME280_pressure;Samples;Min_cycle;Max_cycle;Signal;HPM_P1;HPM_P2
2022/11/23 00:01:17;;;;;;;38.53;15.70;;;5.10;99.90;;;;;;5075406;28;20591;-64
2022/11/23 00:03:45;;;;;;;32.17;14.00;;;5.10;99.90;;;;;;5073534;28;20201;-64
2022/11/23 00:06:14;;;;;;;32.33;13.30;;;5.10;99.90;;;;;;5074828;28;20185;-64
2022/11/23 00:08:41;;;;;;;31.90;13.47;;;5.10;99.90;;;;;;5074084;28;20186;-64
2022/11/23 00:11:08;;;;;;;39.27;16.77;;;5.20;99.90;;;;;;5076928;28;20569;-64
2022/11/23 00:13:38;;;;;;;33.60;15.30;;;5.20;99.90;;;;;;5074941;28;20684;-64
2022/11/23 00:16:05;;;;;;;37.13;15.53;;;5.20;99.90;;;;;;5075335;28;20229;-63
2022/11/23 00:18:33;;;;;;;30.23;13.90;;;5.20;99.90;;;;;;5075838;28;20538;-64
2022/11/23 00:21:00;;;;;;;41.73;16.93;;;5.20;99.90;;;;;;5073665;28;20590;-64
2022/11/23 00:23:29;;;;;;;34.17;15.87;;;5.30;99.90;;;;;;5087106;28;20208;-65
2022/11/23 00:25:56;;;;;;;32.60;13.77;;;5.20;99.90;;;;;;5076717;28;20227;-64
2022/11/23 00:28:23;;;;;;;35.03;15.03;;;5.20;99.90;;;;;;5085269;28;20234;-64
2022/11/23 00:30:51;;;;;;;34.13;15.27;;;5.20;99.90;;;;;;5076445;28;20190;-63
2022/11/23 00:33:18;;;;;;;38.73;16.80;;;5.20;99.90;;;;;;5061554;28;20202;-64
2022/11/23 00:35:45;;;;;;;42.93;17.10;;;5.20;99.90;;;;;;5061683;28;20250;-64
2022/11/23 00:38:12;;;;;;;36.23;15.80;;;5.20;99.90;;;;;;5059943;28;20284;-64
2022/11/23 00:40:41;;;;;;;44.70;18.47;;;5.10;99.90;;;;;;5075721;28;20200;-65
2022/11/23 00:43:08;;;;;;;43.43;17.70;;;5.10;99.90;;;;;;5056283;28;20234;-64
2022/11/23 00:45:35;;;;;;;39.00;15.97;;;5.10;99.90;;;;;;5079465;28;20197;-64
2022/11/23 00:48:02;;;;;;;41.40;17.20;;;5.00;99.90;;;;;;5072753;28;20190;-64
2022/11/23 00:50:30;;;;;;;34.43;15.13;;;5.00;99.90;;;;;;5055420;28;20284;-64
2022/11/23 00:52:57;;;;;;;33.13;14.93;;;5.00;99.90;;;;;;5079667;28;20189;-63
2022/11/23 00:55:24;;;;;;;41.73;17.77;;;5.10;99.90;;;;;;5086017;28;20235;-64
2022/11/23 00:57:52;;;;;;;44.07;19.53;;;5.00;99.90;;;;;;5072255;28;20197;-64
2022/11/23 01:00:20;;;;;;;36.67;16.77;;;5.00;99.90;;;;;;5078945;28;20299;-64
2022/11/23 01:02:47;;;;;;;28.57;13.57;;;5.00;99.90;;;;;;5054445;28;20200;-64
2022/11/23 01:05:14;;;;;;;29.53;13.07;;;5.00;99.90;;;;;;5076223;28;20202;-64
2022/11/23 01:07:41;;;;;;;35.83;15.63;;;5.00;99.90;;;;;;5073403;28;20228;-64
2022/11/23 01:10:09;;;;;;;38.57;15.80;;;4.90;99.90;;;;;;5076944;28;20189;-64
2022/11/23 01:12:36;;;;;;;35.33;14.63;;;5.00;99.90;;;;;;5074852;28;20205;-65
2022/11/23 01:15:05;;;;;;;39.73;15.70;;;4.90;99.90;;;;;;5074876;28;20219;-64
2022/11/23 01:17:32;;;;;;;45.63;18.97;;;5.00;99.90;;;;;;5056811;28;20197;-64
2022/11/23 01:19:59;;;;;;;41.60;17.83;;;4.90;99.90;;;;;;5076869;28;20207;-64
2022/11/23 01:22:26;;;;;;;37.23;16.27;;;4.90;99.90;;;;;;5058992;28;20235;-64
2022/11/23 01:24:53;;;;;;;42.13;16.70;;;4.90;99.90;;;;;;5077238;28;20283;-64
2022/11/23 01:27:20;;;;;;;42.43;17.87;;;4.90;99.90;;;;;;5076438;28;20224;-64
2022/11/23 01:29:47;;;;;;;41.53;17.17;;;4.90;99.90;;;;;;5075294;28;20232;-64
2022/11/23 01:32:15;;;;;;;40.90;17.17;;;4.80;99.90;;;;;;5075209;28;20194;-64
2022/11/23 01:34:42;;;;;;;44.80;18.90;;;4.90;99.90;;;;;;5073490;28;20255;-64
2022/11/23 01:37:10;;;;;;;41.40;16.70;;;4.90;99.90;;;;;;5076358;28;20185;-65
2022/11/23 01:39:37;;;;;;;44.97;18.87;;;4.80;99.90;;;;;;5075501;28;20328;-64
2022/11/23 01:42:06;;;;;;;39.17;16.77;;;4.90;99.90;;;;;;5074465;28;20628;-63
2022/11/23 01:44:36;;;;;;;40.40;16.60;;;4.80;99.90;;;;;;5060434;28;20200;-64
2022/11/23 01:47:04;;;;;;;35.40;15.37;;;4.80;99.90;;;;;;5073736;28;20203;-64
2022/11/23 01:49:36;;;;;;;33.37;14.57;;;4.80;99.90;;;;;;5070665;28;20199;-63
2022/11/23 01:52:07;;;;;;;36.17;14.57;;;4.80;99.90;;;;;;5085051;28;20201;-64
2022/11/23 01:54:38;;;;;;;40.03;17.03;;;4.90;99.90;;;;;;5089169;28;20227;-64
2022/11/23 01:57:09;;;;;;;37.93;16.00;;;4.90;99.90;;;;;;5073735;28;20640;-65
2022/11/23 01:59:37;;;;;;;36.43;15.23;;;4.90;99.90;;;;;;5055520;28;20220;-65
2022/11/23 02:02:06;;;;;;;30.73;13.80;;;4.80;99.90;;;;;;5085362;28;20697;-65
2022/11/23 02:04:40;;;;;;;37.07;14.40;;;4.80;99.90;;;;;;5059464;28;20250;-65
2022/11/23 02:07:08;;;;;;;33.07;14.10;;;4.80;99.90;;;;;;5071398;28;20186;-65
2022/11/23 02:09:36;;;;;;;34.40;14.73;;;4.80;99.90;;;;;;5085954;28;20240;-65
2022/11/23 02:12:03;;;;;;;36.33;15.43;;;4.80;99.90;;;;;;5086129;28;20200;-63
2022/11/23 02:14:30;;;;;;;29.80;12.80;;;4.80;99.90;;;;;;5077804;28;20211;-64
2022/11/23 02:16:58;;;;;;;30.93;13.53;;;4.80;99.90;;;;;;5058105;28;20200;-64
2022/11/23 02:19:36;;;;;;;28.10;12.40;;;4.80;99.90;;;;;;5059193;28;20217;-65
2022/11/23 02:22:09;;;;;;;29.37;13.43;;;4.90;99.90;;;;;;5060976;28;20251;-64
2022/11/23 02:24:43;;;;;;;34.53;15.00;;;4.90;99.90;;;;;;5074627;28;20196;-64
2022/11/23 02:27:13;;;;;;;39.63;16.57;;;4.90;99.90;;;;;;5087111;28;20288;-64
2022/11/23 02:29:40;;;;;;;36.13;15.43;;;4.90;99.90;;;;;;5075745;28;20217;-64
2022/11/23 02:32:07;;;;;;;33.13;14.63;;;4.90;99.90;;;;;;5082943;28;20546;-64
2022/11/23 02:34:35;;;;;;;30.80;13.77;;;4.90;99.90;;;;;;5058289;28;20201;-64
2022/11/23 02:37:02;;;;;;;30.43;13.33;;;4.90;99.90;;;;;;5073888;28;20193;-64
2022/11/23 02:39:33;;;;;;;29.17;13.27;;;4.90;99.90;;;;;;5063291;28;20217;-65
2022/11/23 02:42:01;;;;;;;33.93;14.70;;;5.00;99.90;;;;;;5073119;28;20194;-63
2022/11/23 02:44:37;;;;;;;32.77;14.23;;;5.00;99.90;;;;;;5074451;28;20216;-66
2022/11/23 02:47:07;;;;;;;31.43;13.20;;;5.00;99.90;;;;;;5057798;28;20675;-64
2022/11/23 02:49:34;;;;;;;30.97;13.83;;;5.10;99.90;;;;;;5073063;28;20506;-64
2022/11/23 02:52:02;;;;;;;28.40;12.93;;;5.00;99.90;;;;;;5075611;28;20189;-65
2022/11/23 02:54:29;;;;;;;34.33;15.93;;;5.00;99.90;;;;;;5084532;28;20189;-65
2022/11/23 02:56:57;;;;;;;35.70;16.00;;;5.00;99.90;;;;;;5074918;28;20234;-65
2022/11/23 02:59:24;;;;;;;34.67;15.47;;;5.00;99.90;;;;;;5065301;28;20221;-65
2022/11/23 03:01:54;;;;;;;33.40;14.97;;;4.90;99.90;;;;;;5086221;28;20203;-64
2022/11/23 03:04:21;;;;;;;37.90;16.60;;;4.90;99.90;;;;;;5071829;28;20535;-64
2022/11/23 03:06:48;;;;;;;33.30;14.47;;;4.90;99.90;;;;;;5062330;28;20204;-64
2022/11/23 03:09:15;;;;;;;34.50;15.17;;;4.90;99.90;;;;;;5060118;28;20193;-64
2022/11/23 03:11:42;;;;;;;30.10;13.40;;;4.90;99.90;;;;;;5069796;28;20193;-64
2022/11/23 03:14:09;;;;;;;35.83;16.20;;;4.90;99.90;;;;;;5089739;28;20196;-63
2022/11/23 03:16:46;;;;;;;38.37;17.10;;;4.90;99.90;;;;;;5060399;28;20202;-65
2022/11/23 03:19:18;;;;;;;36.33;15.73;;;4.80;99.90;;;;;;5077709;28;20193;-65
2022/11/23 03:21:45;;;;;;;29.60;13.87;;;4.80;99.90;;;;;;5088169;28;20203;-65
2022/11/23 03:24:12;;;;;;;34.97;14.83;;;4.80;99.90;;;;;;5083322;28;20216;-66
2022/11/23 03:26:39;;;;;;;36.63;15.23;;;4.90;99.90;;;;;;5087239;28;20624;-66
2022/11/23 03:29:13;;;;;;;32.40;14.70;;;4.80;99.90;;;;;;5091094;28;20646;-66
2022/11/23 03:31:41;;;;;;;34.07;15.77;;;4.90;99.90;;;;;;5080377;28;20189;-66
2022/11/23 03:34:12;;;;;;;35.93;16.17;;;4.90;99.90;;;;;;5073930;28;20625;-66
2022/11/23 03:36:41;;;;;;;29.30;14.53;;;4.80;99.90;;;;;;5081330;28;20230;-65
2022/11/23 03:39:09;;;;;;;37.70;15.20;;;4.80;99.90;;;;;;5089760;28;20200;-66
2022/11/23 03:41:55;;;;;;;26.20;11.63;;;4.70;99.90;;;;;;5076083;28;20691;-66
2022/11/23 03:44:25;;;;;;;35.57;14.60;;;4.80;99.90;;;;;;5090071;28;20580;-65
2022/11/23 03:46:52;;;;;;;39.27;16.63;;;4.90;99.90;;;;;;5083701;28;21665;-65
2022/11/23 03:49:19;;;;;;;39.53;17.07;;;4.80;99.90;;;;;;5089457;28;20203;-65
2022/11/23 03:51:47;;;;;;;34.53;15.10;;;4.80;99.90;;;;;;5077901;28;20242;-65
2022/11/23 03:54:15;;;;;;;30.60;13.63;;;4.70;99.90;;;;;;5086161;28;20193;-64
2022/11/23 03:56:42;;;;;;;33.27;14.13;;;4.70;99.90;;;;;;5065547;28;20660;-66
2022/11/23 03:59:09;;;;;;;31.97;14.00;;;4.70;99.90;;;;;;5071899;28;20644;-66
2022/11/23 04:01:38;;;;;;;29.93;13.63;;;4.70;99.90;;;;;;5071033;28;20200;-66
2022/11/23 04:04:09;;;;;;;31.57;14.67;;;4.80;99.90;;;;;;5066778;28;20725;-66
2022/11/23 04:06:53;;;;;;;27.77;12.97;;;4.80;99.90;;;;;;5066466;28;20245;-66
2022/11/23 04:09:31;;;;;;;33.43;14.00;;;4.80;99.90;;;;;;5088872;28;20282;-64
2022/11/23 04:12:04;;;;;;;39.77;16.57;;;4.80;99.90;;;;;;5084187;28;20200;-64
2022/11/23 04:14:31;;;;;;;39.90;16.70;;;4.80;99.90;;;;;;5071399;28;20741;-65
2022/11/23 04:17:00;;;;;;;38.40;16.67;;;4.80;99.90;;;;;;5063875;28;20767;-66
2022/11/23 04:19:28;;;;;;;39.23;16.67;;;4.70;99.90;;;;;;5084718;28;20215;-65
2022/11/23 04:21:57;;;;;;;29.90;13.40;;;4.70;99.90;;;;;;5067010;28;20197;-66
2022/11/23 04:24:25;;;;;;;40.10;17.87;;;4.70;99.90;;;;;;5063625;28;20234;-63
2022/11/23 04:26:54;;;;;;;37.17;15.37;;;4.70;99.90;;;;;;5072181;28;20228;-65
2022/11/23 04:29:22;;;;;;;38.10;16.23;;;4.70;99.90;;;;;;5066552;28;20229;-66
2022/11/23 04:31:53;;;;;;;27.37;12.60;;;4.70;99.90;;;;;;5060399;28;20193;-66
2022/11/23 04:34:21;;;;;;;25.77;11.67;;;4.70;99.90;;;;;;5071201;28;20200;-66
2022/11/23 04:36:50;;;;;;;31.17;13.90;;;4.80;99.90;;;;;;5061703;28;20201;-66
2022/11/23 04:39:21;;;;;;;32.77;14.87;;;4.80;99.90;;;;;;5088633;28;20570;-64
2022/11/23 04:42:06;;;;;;;35.80;15.23;;;4.80;99.90;;;;;;5083310;28;20218;-65
2022/11/23 04:44:34;;;;;;;35.97;15.53;;;4.80;99.90;;;;;;5062125;28;20653;-65
2022/11/23 04:47:05;;;;;;;35.90;15.57;;;4.80;99.90;;;;;;5067686;28;20272;-67
2022/11/23 04:49:36;;;;;;;26.47;13.10;;;4.80;99.90;;;;;;5055812;28;20247;-67
2022/11/23 04:52:04;;;;;;;31.70;14.20;;;4.80;99.90;;;;;;5056991;28;20515;-66
2022/11/23 04:54:38;;;;;;;33.83;14.07;;;4.80;99.90;;;;;;5064868;28;20267;-67
2022/11/23 04:57:08;;;;;;;31.30;13.20;;;4.80;99.90;;;;;;5053917;28;20254;-66
2022/11/23 04:59:36;;;;;;;32.97;14.40;;;4.80;99.90;;;;;;5083568;28;20216;-66
2022/11/23 05:02:03;;;;;;;35.47;14.93;;;4.80;99.90;;;;;;5057729;28;20197;-65
2022/11/23 05:04:52;;;;;;;37.80;15.10;;;4.80;99.90;;;;;;5074706;28;20852;-65
2022/11/23 05:07:20;;;;;;;38.03;16.33;;;4.80;99.90;;;;;;5059784;28;20609;-65
2022/11/23 05:09:56;;;;;;;31.47;13.03;;;4.70;99.90;;;;;;5083654;28;20243;-64
2022/11/23 05:12:24;;;;;;;34.50;14.47;;;4.70;99.90;;;;;;5082104;28;20193;-65
2022/11/23 05:14:52;;;;;;;34.33;13.90;;;4.70;99.90;;;;;;5061869;28;20193;-63
2022/11/23 05:17:38;;;;;;;43.00;16.77;;;4.70;99.90;;;;;;5064773;28;20514;-65
2022/11/23 05:20:11;;;;;;;34.07;15.27;;;4.70;99.90;;;;;;5068815;28;20583;-64
2022/11/23 05:22:43;;;;;;;35.77;15.10;;;4.60;99.90;;;;;;5083892;28;20299;-65
2022/11/23 05:25:19;;;;;;;31.73;13.37;;;4.60;99.90;;;;;;5058037;28;20200;-64
2022/11/23 05:27:51;;;;;;;36.37;14.93;;;4.60;99.90;;;;;;5060527;28;20196;-65
2022/11/23 05:30:18;;;;;;;33.67;13.20;;;4.60;99.90;;;;;;5074715;28;20244;-65
2022/11/23 05:32:46;;;;;;;33.63;14.47;;;4.70;99.90;;;;;;5070222;28;20192;-66
2022/11/23 05:35:14;;;;;;;31.47;14.20;;;4.70;99.90;;;;;;5057424;28;20201;-65
2022/11/23 05:37:41;;;;;;;30.73;13.27;;;4.70;99.90;;;;;;5062788;28;20197;-65
2022/11/23 05:40:12;;;;;;;41.00;16.67;;;4.60;99.90;;;;;;5062350;28;20210;-65
2022/11/23 05:42:40;;;;;;;38.00;14.73;;;4.70;99.90;;;;;;5083028;28;20203;-66
2022/11/23 05:45:16;;;;;;;36.57;14.87;;;4.70;99.90;;;;;;5088575;28;20210;-64
2022/11/23 05:47:50;;;;;;;39.03;14.93;;;4.60;99.90;;;;;;5051259;28;20201;-64
2022/11/23 05:50:24;;;;;;;32.90;13.53;;;4.60;99.90;;;;;;5066182;28;20193;-65
2022/11/23 05:53:11;;;;;;;39.13;16.63;;;4.70;99.90;;;;;;5073704;28;20192;-64
2022/11/23 05:55:38;;;;;;;38.93;15.97;;;4.60;99.90;;;;;;5065398;28;20241;-64
2022/11/23 05:58:06;;;;;;;31.13;13.20;;;4.60;99.90;;;;;;5067228;28;20184;-67
2022/11/23 06:00:35;;;;;;;38.43;15.10;;;4.60;99.90;;;;;;5053508;28;20258;-66
2022/11/23 06:03:07;;;;;;;32.73;13.97;;;4.60;99.90;;;;;;5056057;28;20204;-65
2022/11/23 06:05:34;;;;;;;40.70;16.20;;;4.60;99.90;;;;;;5055746;28;20197;-66
2022/11/23 06:08:01;;;;;;;36.47;15.07;;;4.60;99.90;;;;;;5085640;28;20282;-66
2022/11/23 06:10:28;;;;;;;43.97;16.07;;;4.60;99.90;;;;;;5076032;28;20193;-66
2022/11/23 06:13:02;;;;;;;41.50;16.10;;;4.50;99.90;;;;;;5059362;28;20661;-66
2022/11/23 06:15:31;;;;;;;40.97;15.47;;;4.50;99.90;;;;;;5061408;28;20197;-66
2022/11/23 06:18:01;;;;;;;47.37;17.17;;;4.50;99.90;;;;;;5059857;28;20214;-66
2022/11/23 06:20:36;;;;;;;40.67;16.30;;;4.40;99.90;;;;;;5060408;28;20215;-66
2022/11/23 06:23:03;;;;;;;43.77;17.20;;;4.40;99.90;;;;;;5084828;28;20200;-65
2022/11/23 06:25:30;;;;;;;45.00;17.53;;;4.30;99.90;;;;;;5066242;28;20216;-65
2022/11/23 06:28:06;;;;;;;41.97;16.03;;;4.30;99.90;;;;;;5082815;28;20225;-66
2022/11/23 06:30:41;;;;;;;38.60;15.50;;;4.30;99.90;;;;;;5068378;28;20275;-66
2022/11/23 06:33:09;;;;;;;44.80;17.37;;;4.30;99.90;;;;;;5066754;28;20742;-65
2022/11/23 06:35:53;;;;;;;45.90;17.70;;;4.30;99.90;;;;;;5067268;28;20697;-65
2022/11/23 06:38:20;;;;;;;44.60;16.63;;;4.30;99.90;;;;;;5066872;28;20203;-66
2022/11/23 06:40:57;;;;;;;43.97;16.83;;;4.30;99.90;;;;;;5069886;28;20208;-66
2022/11/23 06:43:24;;;;;;;40.33;16.63;;;4.30;99.90;;;;;;5063560;28;20205;-66
2022/11/23 06:45:53;;;;;;;41.43;16.03;;;4.30;99.90;;;;;;5069862;28;20254;-67
2022/11/23 06:48:20;;;;;;;45.00;16.77;;;4.30;99.90;;;;;;5059360;28;20208;-65
2022/11/23 06:50:49;;;;;;;35.53;14.53;;;4.30;99.90;;;;;;5091727;28;20614;-66
2022/11/23 06:53:17;;;;;;;39.20;15.43;;;4.40;99.90;;;;;;5063919;28;20219;-66
2022/11/23 06:55:48;;;;;;;46.23;16.63;;;4.40;99.90;;;;;;5086153;28;20215;-66
2022/11/23 06:58:18;;;;;;;45.20;16.60;;;4.50;99.90;;;;;;5065328;28;20199;-66
2022/11/23 07:00:45;;;;;;;42.10;16.27;;;4.50;99.90;;;;;;5077350;28;20197;-65
2022/11/23 07:03:20;;;;;;;38.47;15.30;;;4.50;99.90;;;;;;5089506;28;20196;-66
2022/11/23 07:05:49;;;;;;;36.63;14.60;;;4.50;99.90;;;;;;5091075;28;20551;-66
2022/11/23 07:08:19;;;;;;;35.27;14.60;;;4.50;99.90;;;;;;5067249;28;20208;-67
2022/11/23 07:10:46;;;;;;;31.47;13.20;;;4.60;99.90;;;;;;5067310;28;20280;-66
2022/11/23 07:13:16;;;;;;;25.83;12.23;;;4.60;99.90;;;;;;5090271;28;20197;-66
2022/11/23 07:15:43;;;;;;;31.77;12.60;;;4.60;99.90;;;;;;5089382;28;20611;-66
2022/11/23 07:18:12;;;;;;;38.07;14.27;;;4.60;99.90;;;;;;5082507;28;20242;-67
2022/11/23 07:20:46;;;;;;;28.87;11.97;;;4.70;99.90;;;;;;5063507;28;20291;-66
2022/11/23 07:23:13;;;;;;;29.50;12.40;;;4.70;99.90;;;;;;5065476;28;20220;-66
2022/11/23 07:25:41;;;;;;;47.43;17.50;;;4.70;99.90;;;;;;5091459;28;20296;-66
2022/11/23 07:28:10;;;;;;;46.60;18.50;;;4.70;99.90;;;;;;5080373;28;20197;-67
2022/11/23 07:30:38;;;;;;;43.50;17.40;;;4.70;99.90;;;;;;5090825;28;20216;-66
2022/11/23 07:33:07;;;;;;;35.70;14.10;;;4.70;99.90;;;;;;5063987;28;20283;-67
2022/11/23 07:35:36;;;;;;;46.70;17.87;;;4.80;99.90;;;;;;5061164;28;20204;-67
2022/11/23 07:38:08;;;;;;;44.37;16.00;;;4.80;99.90;;;;;;5076847;28;20350;-67
2022/11/23 07:40:37;;;;;;;37.93;14.70;;;4.80;99.90;;;;;;5062535;28;20301;-68
2022/11/23 07:43:06;;;;;;;35.83;14.53;;;4.80;99.90;;;;;;5075730;28;20694;-67
2022/11/23 07:45:33;;;;;;;41.70;16.50;;;4.80;99.90;;;;;;5080374;28;20196;-67
2022/11/23 07:48:02;;;;;;;33.97;14.67;;;4.80;99.90;;;;;;5065898;28;20568;-67
2022/11/23 07:50:29;;;;;;;31.97;13.50;;;4.90;99.90;;;;;;5088038;28;20287;-66
2022/11/23 07:52:57;;;;;;;39.67;15.67;;;4.90;99.90;;;;;;5079696;28;20200;-66
2022/11/23 07:55:25;;;;;;;45.80;17.70;;;4.90;99.90;;;;;;5078670;28;20296;-67
2022/11/23 07:57:53;;;;;;;46.30;16.57;;;4.90;99.90;;;;;;5072374;28;20196;-67
2022/11/23 08:00:21;;;;;;;51.40;18.20;;;4.90;99.90;;;;;;5074190;28;20208;-67
2022/11/23 08:02:48;;;;;;;45.20;17.67;;;4.80;99.90;;;;;;5071907;28;20193;-67
2022/11/23 08:05:16;;;;;;;41.03;16.17;;;3.90;99.90;;;;;;5057627;28;20201;-67
2022/11/23 08:07:43;;;;;;;34.57;14.83;;;4.70;99.90;;;;;;5074057;28;20194;-67
2022/11/23 08:10:11;;;;;;;48.20;19.33;;;4.70;99.90;;;;;;5078701;28;20278;-67
2022/11/23 08:12:41;;;;;;;45.03;17.03;;;4.70;99.90;;;;;;5076289;28;20594;-67
2022/11/23 08:15:09;;;;;;;47.13;17.97;;;4.70;99.90;;;;;;5085196;28;20192;-68
2022/11/23 08:17:36;;;;;;;42.13;16.90;;;4.60;99.90;;;;;;5073506;28;20193;-66
2022/11/23 08:20:03;;;;;;;39.53;15.87;;;4.60;99.90;;;;;;5085960;28;20714;-67
2022/11/23 08:22:31;;;;;;;46.93;18.67;;;4.60;99.90;;;;;;5075615;28;20212;-66
2022/11/23 08:24:58;;;;;;;43.97;18.43;;;4.60;99.90;;;;;;5076604;28;20196;-66
2022/11/23 08:27:25;;;;;;;39.27;16.33;;;4.70;99.90;;;;;;5077157;28;20539;-66
2022/11/23 08:29:53;;;;;;;43.63;17.37;;;4.60;99.90;;;;;;5076031;28;20618;-67
2022/11/23 08:32:20;;;;;;;44.87;18.13;;;4.60;99.90;;;;;;5077797;28;20246;-66
2022/11/23 08:34:47;;;;;;;48.43;19.00;;;4.60;99.90;;;;;;5084813;28;20228;-66
2022/11/23 08:37:14;;;;;;;52.67;19.20;;;4.60;99.90;;;;;;5076764;28;20541;-66
2022/11/23 08:39:41;;;;;;;52.37;20.43;;;4.60;99.90;;;;;;5071446;28;20301;-67
2022/11/23 08:42:08;;;;;;;48.33;18.70;;;4.50;99.90;;;;;;5074329;28;20606;-67
2022/11/23 08:44:35;;;;;;;46.70;17.77;;;4.50;99.90;;;;;;5074934;28;20254;-66
2022/11/23 08:47:04;;;;;;;49.47;18.33;;;4.60;99.90;;;;;;5077962;28;20240;-66
2022/11/23 08:49:31;;;;;;;50.43;18.70;;;4.50;99.90;;;;;;5068684;28;20671;-66
2022/11/23 08:51:58;;;;;;;46.57;17.93;;;4.50;99.90;;;;;;5072089;28;20192;-66
2022/11/23 08:54:25;;;;;;;49.13;18.67;;;4.50;99.90;;;;;;5063103;28;20440;-66
2022/11/23 08:56:53;;;;;;;45.87;18.10;;;4.50;99.90;;;;;;5074611;28;20196;-66
2022/11/23 08:59:20;;;;;;;48.93;18.77;;;4.50;99.90;;;;;;5071529;28;20533;-67
2022/11/23 09:01:47;;;;;;;48.33;19.27;;;4.40;99.90;;;;;;5073544;28;20200;-67
2022/11/23 09:04:15;;;;;;;51.07;19.90;;;4.40;99.90;;;;;;5071907;28;20197;-67
2022/11/23 09:06:42;;;;;;;50.27;18.33;;;4.40;99.90;;;;;;5056324;28;20192;-68
2022/11/23 09:09:09;;;;;;;46.60;17.77;;;4.40;99.90;;;;;;5073942;28;20197;-69
2022/11/23 09:11:36;;;;;;;52.23;19.97;;;4.40;99.90;;;;;;5074820;28;20642;-68
2022/11/23 09:14:04;;;;;;;48.80;19.23;;;4.40;99.90;;;;;;5072193;28;20311;-67
2022/11/23 09:16:31;;;;;;;46.37;16.73;;;4.40;99.90;;;;;;5075071;28;20196;-67
2022/11/23 09:18:58;;;;;;;46.33;16.60;;;4.40;99.90;;;;;;5072012;28;20194;-67
2022/11/23 09:21:29;;;;;;;46.43;18.27;;;4.40;99.90;;;;;;5075194;28;20611;-67
2022/11/23 09:23:56;;;;;;;50.93;19.33;;;4.40;99.90;;;;;;5072577;28;20189;-66
2022/11/23 09:26:24;;;;;;;52.17;19.63;;;4.40;99.90;;;;;;5075909;28;20196;-67
2022/11/23 09:28:51;;;;;;;46.17;18.00;;;4.40;99.90;;;;;;5078928;28;20538;-66
2022/11/23 09:31:18;;;;;;;42.37;17.23;;;4.40;99.90;;;;;;5074463;28;20198;-67
2022/11/23 09:33:46;;;;;;;46.13;17.47;;;4.50;99.90;;;;;;5072597;28;20228;-67
2022/11/23 09:36:13;;;;;;;50.87;20.03;;;4.50;99.90;;;;;;5074813;28;20193;-67
2022/11/23 09:38:41;;;;;;;46.30;18.53;;;4.60;99.90;;;;;;5074776;28;20586;-66
2022/11/23 09:41:23;;;;;;;54.67;19.50;;;4.50;99.90;;;;;;5073225;28;20204;-67
2022/11/23 09:44:00;;;;;;;49.77;18.20;;;4.50;99.90;;;;;;5069029;28;20657;-67
2022/11/23 09:46:35;;;;;;;47.40;17.67;;;4.50;99.90;;;;;;5068138;28;20532;-66
2022/11/23 09:49:15;;;;;;;50.87;18.50;;;4.60;99.90;;;;;;5067707;28;20756;-66
2022/11/23 09:51:44;;;;;;;48.03;18.20;;;4.60;99.90;;;;;;5074219;28;20303;-66
2022/11/23 09:54:22;;;;;;;45.23;17.63;;;4.60;99.90;;;;;;5082766;28;20193;-66
2022/11/23 09:56:52;;;;;;;41.03;16.87;;;4.60;99.90;;;;;;5076862;28;20233;-66
2022/11/23 09:59:27;;;;;;;54.20;19.37;;;4.60;99.90;;;;;;5071591;28;20196;-66
2022/11/23 10:01:54;;;;;;;54.73;20.50;;;4.60;99.90;;;;;;5059597;28;20212;-66
2022/11/23 10:04:22;;;;;;;48.23;18.57;;;4.50;99.90;;;;;;5083245;28;20200;-66
2022/11/23 10:06:54;;;;;;;41.80;16.13;;;4.50;99.90;;;;;;5076041;28;20188;-66
2022/11/23 10:09:36;;;;;;;43.20;17.20;;;4.60;99.90;;;;;;5075295;28;20440;-66
2022/11/23 10:12:35;;;;;;;47.63;18.20;;;5.70;99.90;;;;;;5069135;28;20270;-66
2022/11/23 10:15:09;;;;;;;44.77;18.00;;;4.60;99.90;;;;;;5066814;28;20222;-66
2022/11/23 10:17:59;;;;;;;49.87;18.93;;;4.60;99.90;;;;;;5070957;28;20188;-65
2022/11/23 10:20:42;;;;;;;55.07;20.20;;;4.60;99.90;;;;;;5075337;28;21110;-65
2022/11/23 10:23:17;;;;;;;50.57;19.03;;;4.60;99.90;;;;;;5066936;28;20292;-66
2022/11/23 10:25:50;;;;;;;44.43;16.73;;;4.60;99.90;;;;;;5074229;28;20196;-66
2022/11/23 10:28:23;;;;;;;46.60;18.17;;;4.60;99.90;;;;;;5071935;28;20188;-66
2022/11/23 10:31:13;;;;;;;47.77;18.70;;;4.60;99.90;;;;;;5075520;28;20192;-66
2022/11/23 10:33:53;;;;;;;45.23;18.73;;;4.50;99.90;;;;;;5075225;28;20189;-66
2022/11/23 10:36:20;;;;;;;38.63;16.13;;;4.50;99.90;;;;;;5070191;28;20192;-66
2022/11/23 10:38:50;;;;;;;50.17;20.07;;;4.60;99.90;;;;;;5073659;28;21093;-65
2022/11/23 10:41:19;;;;;;;53.70;19.07;;;4.60;99.90;;;;;;5056081;28;20796;-66
2022/11/23 10:43:52;;;;;;;47.80;19.27;;;4.60;99.90;;;;;;5056686;28;20208;-66
2022/11/23 10:46:29;;;;;;;49.90;19.90;;;4.60;99.90;;;;;;5058556;28;20211;-65
2022/11/23 10:49:08;;;;;;;51.90;19.53;;;4.60;99.90;;;;;;5067929;28;20193;-65
2022/11/23 10:51:35;;;;;;;51.37;19.03;;;4.60;99.90;;;;;;5070975;28;20181;-65
2022/11/23 10:54:04;;;;;;;40.33;16.30;;;4.60;99.90;;;;;;5081293;28;20280;-66
2022/11/23 10:56:33;;;;;;;48.13;17.83;;;4.70;99.90;;;;;;5076329;28;20216;-65
2022/11/23 10:59:01;;;;;;;42.53;17.20;;;4.60;99.90;;;;;;5076471;28;20251;-66
2022/11/23 11:01:29;;;;;;;45.93;16.60;;;4.70;99.90;;;;;;5072858;28;20274;-65
2022/11/23 11:04:02;;;;;;;39.13;15.23;;;4.70;99.90;;;;;;5069297;28;20603;-66
2022/11/23 11:06:33;;;;;;;40.30;16.00;;;4.70;99.90;;;;;;5071457;28;20274;-66
2022/11/23 11:09:02;;;;;;;45.23;17.50;;;4.70;99.90;;;;;;5058358;28;20219;-65
2022/11/23 11:11:33;;;;;;;47.50;18.57;;;4.80;99.90;;;;;;5077797;28;20201;-65
2022/11/23 11:14:05;;;;;;;48.70;17.17;;;4.70;99.90;;;;;;5076185;28;20193;-66
2022/11/23 11:16:34;;;;;;;40.73;15.63;;;4.70;99.90;;;;;;5078069;28;20488;-66
2022/11/23 11:19:22;;;;;;;48.37;18.43;;;4.70;99.90;;;;;;5074031;28;20193;-65
2022/11/23 11:21:49;;;;;;;46.90;18.10;;;4.70;99.90;;;;;;5074100;28;20197;-66
2022/11/23 11:24:20;;;;;;;45.53;17.70;;;4.80;99.90;;;;;;5080235;28;20269;-66
2022/11/23 11:26:51;;;;;;;32.67;14.20;;;4.80;99.90;;;;;;5062422;28;20193;-66
2022/11/23 11:29:31;;;;;;;47.00;17.87;;;4.80;99.90;;;;;;5076803;28;20381;-66
2022/11/23 11:32:04;;;;;;;40.63;17.03;;;4.80;99.90;;;;;;5075911;28;20687;-66
2022/11/23 11:34:40;;;;;;;41.67;17.27;;;4.80;99.90;;;;;;5078479;28;20713;-66
2022/11/23 11:37:13;;;;;;;44.77;17.50;;;4.80;99.90;;;;;;5077046;28;20244;-65
2022/11/23 11:39:46;;;;;;;44.33;17.83;;;4.80;99.90;;;;;;5078095;28;20220;-65
2022/11/23 11:42:19;;;;;;;42.10;16.47;;;4.80;99.90;;;;;;5080958;28;20549;-65
2022/11/23 11:44:49;;;;;;;46.30;17.90;;;4.80;99.90;;;;;;5081245;28;20195;-66
2022/11/23 11:47:25;;;;;;;35.20;14.83;;;4.80;99.90;;;;;;5085033;28;20268;-66
2022/11/23 11:49:56;;;;;;;37.67;15.40;;;4.90;99.90;;;;;;5074097;28;20185;-65
2022/11/23 11:52:26;;;;;;;42.33;15.90;;;4.90;99.90;;;;;;5081214;28;20275;-66
2022/11/23 11:55:01;;;;;;;39.53;15.57;;;4.90;99.90;;;;;;5080013;28;20193;-65
2022/11/23 11:57:33;;;;;;;45.03;17.10;;;4.90;99.90;;;;;;5056520;28;20204;-65
2022/11/23 12:00:02;;;;;;;49.57;19.23;;;4.90;99.90;;;;;;5077159;28;20193;-66
2022/11/23 12:02:36;;;;;;;41.73;17.10;;;4.90;99.90;;;;;;5076143;28;20244;-66
2022/11/23 12:05:11;;;;;;;34.80;15.47;;;4.90;99.90;;;;;;5078759;28;20200;-66
2022/11/23 12:07:43;;;;;;;40.50;16.67;;;5.00;99.90;;;;;;5074576;28;20184;-66
2022/11/23 12:10:15;;;;;;;41.33;16.70;;;5.00;99.90;;;;;;5079047;28;20643;-66
2022/11/23 12:12:43;;;;;;;37.33;15.80;;;5.00;99.90;;;;;;5074930;28;20181;-66
2022/11/23 12:15:19;;;;;;;37.93;14.90;;;5.00;99.90;;;;;;5074853;28;20215;-66
2022/11/23 12:18:13;;;;;;;43.23;17.30;;;5.00;99.90;;;;;;5085400;28;20204;-65
2022/11/23 12:20:47;;;;;;;47.03;17.33;;;5.00;99.90;;;;;;5083852;28;20682;-65
2022/11/23 12:23:28;;;;;;;49.90;19.27;;;5.00;99.90;;;;;;5072737;28;20257;-65
2022/11/23 12:26:12;;;;;;;37.53;15.73;;;5.00;99.90;;;;;;5063377;28;20638;-65
2022/11/23 12:28:54;;;;;;;40.50;16.53;;;5.00;99.90;;;;;;5077530;28;20224;-66
2022/11/23 12:31:38;;;;;;;47.40;19.00;;;5.00;99.90;;;;;;5074749;28;20545;-66
2022/11/23 12:34:28;;;;;;;50.67;19.27;;;5.00;99.90;;;;;;5061775;28;20425;-66
2022/11/23 12:37:15;;;;;;;47.13;17.60;;;4.90;99.90;;;;;;5075974;28;20665;-66
2022/11/23 12:40:03;;;;;;;37.60;16.03;;;4.90;99.90;;;;;;5079645;28;20185;-66
2022/11/23 12:42:38;;;;;;;42.70;17.37;;;4.90;99.90;;;;;;5079806;28;20754;-66
2022/11/23 12:45:31;;;;;;;56.40;21.47;;;4.90;99.90;;;;;;5076414;28;20208;-66
2022/11/23 12:48:14;;;;;;;42.13;17.33;;;4.90;99.90;;;;;;5075080;28;20200;-66
2022/11/23 12:50:47;;;;;;;40.60;16.87;;;4.90;99.90;;;;;;5070231;28;20861;-66
2022/11/23 12:53:36;;;;;;;38.80;16.30;;;4.90;99.90;;;;;;5081115;28;20193;-67